Time;durP1;ratioP1;P1;durP2;ratioP2;P2;SDS_P1;SDS_P2;PMS_P1;PMS_P2;Temp;Humidity;BMP_temperature;BMP_pressure;BME280_temperature;BME280_humidity;BME280_pressure;Samples;Min_cycle;Max_cycle;Signal;HPM_P1;HPM_P2
2021/07/07 06:13:58;;;;;;;23.65;15.73;;;;;;;;;;4976382;28;20534;-84
2021/07/07 06:16:24;;;;;;;23.08;14.93;;;;;;;;;;4971065;28;20031;-84
2021/07/07 06:19:52;;;;;;;24.88;15.30;;;;;;;;;;4981532;28;20076;-84
2021/07/07 06:22:22;;;;;;;20.20;13.90;;;;;;;;;;4961809;28;20028;-84
2021/07/07 06:25:09;;;;;;;18.30;12.68;;;;;;;;;;4969542;28;20034;-84
2021/07/07 06:27:46;;;;;;;14.45;11.05;;;;;;;;;;4973195;28;20067;-84
2021/07/07 06:30:14;;;;;;;13.85;11.40;;;;;;;;;;4974230;28;20027;-84
2021/07/07 06:32:43;;;;;;;20.23;16.00;;;;;;;;;;4988869;28;20031;-84
2021/07/07 06:35:11;;;;;;;23.30;15.98;;;;;;;;;;4973620;28;20027;-83
2021/07/07 06:37:39;;;;;;;;;;;;;;;;;;4955559;29;20035;-83
2021/07/07 06:40:06;;;;;;;30.83;22.00;;;;;;;;;;4966881;28;19985;-83
2021/07/07 06:42:33;;;;;;;26.05;19.45;;;;;;;;;;4966508;29;20055;-83
2021/07/07 06:44:59;;;;;;;35.92;23.52;;;;;;;;;;4969533;28;20389;-83
2021/07/07 06:47:25;;;;;;;27.67;19.30;;;;;;;;;;4983158;28;20041;-83
2021/07/07 06:49:52;;;;;;;28.27;19.30;;;;;;;;;;4961366;28;20059;-83
2021/07/07 06:52:19;;;;;;;30.00;20.02;;;;;;;;;;4965822;28;20043;-83
2021/07/07 06:54:47;;;;;;;26.27;18.40;;;;;;;;;;4959814;29;20026;-83
2021/07/07 06:57:14;;;;;;;28.02;20.08;;;;;;;;;;4962984;28;20111;-83
2021/07/07 06:59:39;;;;;;;25.80;18.98;;;;;;;;;;4987641;28;20027;-83
2021/07/07 07:02:05;;;;;;;28.40;20.10;;;;;;;;;;4974371;29;20015;-83
2021/07/07 07:04:31;;;;;;;28.42;19.95;;;;;;;;;;4984289;28;20033;-83
2021/07/07 07:07:00;;;;;;;25.10;18.40;;;;;;;;;;4977789;28;20495;-83
2021/07/07 07:09:27;;;;;;;25.73;18.75;;;;;;;;;;4984713;28;20023;-84
2021/07/07 07:12:09;;;;;;;21.88;16.45;;;;;;;;;;4963545;29;20059;-84
2021/07/07 10:33:36;;;;;;;4.63;2.10;;;;;;;;;;5020825;23;20153;-86
2021/07/07 10:41:51;;;;;;;4.20;2.17;;;;;;;;;;4958557;23;20067;-90
2021/07/07 10:47:39;;;;;;;6.85;1.73;;;;;;;;;;4923944;29;20456;-89
2021/07/07 10:50:06;;;;;;;4.90;1.77;;;;;;;;;;4919896;29;20036;-89
2021/07/07 10:52:43;;;;;;;5.47;1.98;;;;;;;;;;4936495;29;20031;-89
2021/07/07 10:55:11;;;;;;;2.55;1.55;;;;;;;;;;4888497;29;20052;-90
2021/07/07 10:57:37;;;;;;;5.70;1.70;;;;;;;;;;4924303;29;20034;-90
2021/07/07 11:00:21;;;;;;;3.60;1.67;;;;;;;;;;4911274;29;20488;-90
2021/07/07 11:02:47;;;;;;;2.60;1.52;;;;;;;;;;4916848;29;20028;-90
2021/07/07 11:05:24;;;;;;;4.28;1.70;;;;;;;;;;4922634;29;20544;-90
2021/07/07 11:07:50;;;;;;;4.13;1.65;;;;;;;;;;4904702;29;20066;-89
2021/07/07 11:10:22;;;;;;;5.00;1.77;;;;;;;;;;4900596;29;20059;-90
2021/07/07 11:12:54;;;;;;;6.90;1.83;;;;;;;;;;4907851;29;20035;-90
2021/07/07 11:15:24;;;;;;;4.97;1.80;;;;;;;;;;4910943;29;20399;-90
2021/07/07 11:17:58;;;;;;;6.57;1.90;;;;;;;;;;4935997;29;20042;-87
2021/07/07 11:20:29;;;;;;;3.42;1.88;;;;;;;;;;4935495;29;20416;-90
2021/07/07 11:23:06;;;;;;;5.30;1.63;;;;;;;;;;4919609;29;20064;-90
2021/07/07 11:25:36;;;;;;;4.88;1.73;;;;;;;;;;4921863;29;20064;-90
2021/07/07 11:28:04;;;;;;;5.10;2.00;;;;;;;;;;4916606;29;20047;-90
2021/07/07 11:30:30;;;;;;;3.10;1.60;;;;;;;;;;4931285;29;20038;-90
2021/07/07 11:33:02;;;;;;;4.25;1.70;;;;;;;;;;4936535;29;20111;-90
2021/07/07 11:35:33;;;;;;;2.92;1.83;;;;;;;;;;4911334;29;20023;-90
2021/07/07 11:38:07;;;;;;;4.82;1.60;;;;;;;;;;4935806;29;20031;-90
2021/07/07 11:40:35;;;;;;;3.83;1.63;;;;;;;;;;4927739;29;20048;-90
2021/07/07 11:43:06;;;;;;;3.70;1.63;;;;;;;;;;4899891;29;20032;-90
2021/07/07 11:45:37;;;;;;;3.20;1.50;;;;;;;;;;4910543;29;20043;-89
2021/07/07 11:50:38;;;;;;;5.65;1.50;;;;;;;;;;4917477;29;20034;-90
2021/07/07 11:53:05;;;;;;;4.30;1.50;;;;;;;;;;4899975;29;20032;-90
2021/07/07 11:55:54;;;;;;;3.22;1.75;;;;;;;;;;4900264;29;20074;-90
2021/07/07 11:58:33;;;;;;;3.72;1.65;;;;;;;;;;4917209;29;20401;-90
2021/07/07 12:01:13;;;;;;;2.85;1.38;;;;;;;;;;4907418;29;20531;-89
2021/07/07 12:03:39;;;;;;;8.18;1.90;;;;;;;;;;4881112;29;20052;-89
2021/07/07 12:06:12;;;;;;;2.88;1.20;;;;;;;;;;4898129;29;20043;-88
2021/07/07 12:08:40;;;;;;;2.95;1.45;;;;;;;;;;4914975;29;20030;-89
2021/07/07 12:11:10;;;;;;;3.80;1.45;;;;;;;;;;4895599;29;20068;-88
2021/07/07 12:13:41;;;;;;;2.97;1.65;;;;;;;;;;4897586;29;20040;-89
2021/07/07 12:16:33;;;;;;;4.63;1.95;;;;;;;;;;4892148;29;20277;-88
2021/07/07 12:19:04;;;;;;;4.43;1.50;;;;;;;;;;4893997;29;20135;-89
2021/07/07 12:21:32;;;;;;;2.20;1.38;;;;;;;;;;4887596;29;20055;-89
2021/07/07 12:24:01;;;;;;;2.75;1.50;;;;;;;;;;4899954;29;20032;-88
2021/07/07 12:26:39;;;;;;;4.20;1.45;;;;;;;;;;4914394;29;20056;-88
2021/07/07 12:29:07;;;;;;;5.15;1.60;;;;;;;;;;4909346;29;20033;-88
2021/07/07 12:31:37;;;;;;;5.75;1.75;;;;;;;;;;4876126;29;20048;-89
2021/07/07 12:34:07;;;;;;;5.50;1.35;;;;;;;;;;4896883;29;20403;-89
2021/07/07 12:36:38;;;;;;;4.57;1.50;;;;;;;;;;4879656;29;20044;-88
2021/07/07 12:39:43;;;;;;;8.32;2.28;;;;;;;;;;4879509;29;20028;-88
2021/07/07 12:42:17;;;;;;;5.00;1.80;;;;;;;;;;4907724;29;20044;-89
2021/07/07 12:44:43;;;;;;;4.20;1.55;;;;;;;;;;4898879;29;20032;-89
2021/07/07 12:47:08;;;;;;;3.17;1.58;;;;;;;;;;4898432;29;20047;-89
2021/07/07 12:49:58;;;;;;;5.25;1.70;;;;;;;;;;4897488;29;20088;-88
2021/07/07 12:52:33;;;;;;;3.50;1.50;;;;;;;;;;4900200;29;20031;-88
2021/07/07 12:55:24;;;;;;;6.50;1.92;;;;;;;;;;4898615;29;20032;-88
2021/07/07 12:58:01;;;;;;;4.20;1.13;;;;;;;;;;4899061;29;20076;-88
2021/07/07 13:00:33;;;;;;;4.07;1.33;;;;;;;;;;4916283;29;20028;-88
2021/07/07 13:02:59;;;;;;;3.17;1.60;;;;;;;;;;4902306;29;20035;-88
2021/07/07 13:05:37;;;;;;;4.15;1.77;;;;;;;;;;4903988;29;20484;-87
2021/07/07 13:08:07;;;;;;;4.22;1.40;;;;;;;;;;4919704;29;20408;-88
2021/07/07 13:10:42;;;;;;;6.78;1.60;;;;;;;;;;4925651;29;20083;-88
2021/07/07 13:13:31;;;;;;;6.10;1.70;;;;;;;;;;4926302;29;20036;-86
2021/07/07 13:16:26;;;;;;;1.98;1.20;;;;;;;;;;4898609;29;20028;-87
2021/07/07 13:18:58;;;;;;;3.63;1.40;;;;;;;;;;4889642;29;20062;-88
2021/07/07 13:21:45;;;;;;;3.83;1.48;;;;;;;;;;4910743;29;20028;-87
2021/07/07 13:24:21;;;;;;;2.28;1.30;;;;;;;;;;4908410;29;20131;-88
2021/07/07 13:26:59;;;;;;;12.02;2.10;;;;;;;;;;4914147;29;20048;-87
2021/07/07 13:29:27;;;;;;;3.58;1.50;;;;;;;;;;4920008;29;20382;-88
2021/07/07 13:32:07;;;;;;;5.18;1.30;;;;;;;;;;4915593;29;20099;-89
2021/07/07 13:34:42;;;;;;;7.97;1.70;;;;;;;;;;4922765;29;20043;-87
2021/07/07 13:37:18;;;;;;;2.28;1.30;;;;;;;;;;4901047;29;20140;-87
2021/07/07 13:39:46;;;;;;;2.33;1.10;;;;;;;;;;4901576;29;20455;-88
2021/07/07 13:42:14;;;;;;;4.03;1.42;;;;;;;;;;4881188;29;20039;-87
2021/07/07 13:44:39;;;;;;;6.90;1.77;;;;;;;;;;4903951;29;20489;-87
2021/07/07 13:47:05;;;;;;;5.05;1.40;;;;;;;;;;4905499;29;20028;-88
2021/07/07 13:49:30;;;;;;;4.30;1.45;;;;;;;;;;4902360;29;20031;-87
2021/07/07 13:51:56;;;;;;;7.50;1.20;;;;;;;;;;4910766;29;21286;-87
2021/07/07 13:54:24;;;;;;;2.90;1.10;;;;;;;;;;4883436;29;20067;-88
2021/07/07 13:56:50;;;;;;;4.38;1.60;;;;;;;;;;4912990;29;20032;-86
2021/07/07 13:59:16;;;;;;;4.03;1.17;;;;;;;;;;4886880;29;20020;-86
2021/07/07 14:01:47;;;;;;;4.55;1.20;;;;;;;;;;4906764;29;20185;-85
2021/07/07 14:04:12;;;;;;;6.35;1.20;;;;;;;;;;4917041;29;20024;-87
2021/07/07 14:06:38;;;;;;;3.25;1.35;;;;;;;;;;4892024;29;20036;-87
2021/07/07 14:09:05;;;;;;;2.47;1.20;;;;;;;;;;4893129;29;20421;-87
2021/07/07 14:11:35;;;;;;;3.53;1.38;;;;;;;;;;4912239;29;20028;-86
2021/07/07 14:14:00;;;;;;;2.97;1.40;;;;;;;;;;4902021;29;20455;-86
2021/07/07 14:16:26;;;;;;;4.63;1.45;;;;;;;;;;4892508;29;20118;-86
2021/07/07 14:18:51;;;;;;;1.70;1.17;;;;;;;;;;4909668;29;20040;-87
2021/07/07 14:21:17;;;;;;;2.22;1.02;;;;;;;;;;4899684;29;20092;-87
2021/07/07 14:23:43;;;;;;;3.90;1.35;;;;;;;;;;4930241;29;20028;-86
2021/07/07 14:26:08;;;;;;;3.72;1.20;;;;;;;;;;4890931;29;20051;-87
2021/07/07 14:28:34;;;;;;;2.90;1.10;;;;;;;;;;4914599;29;20032;-87
2021/07/07 14:31:00;;;;;;;4.88;1.27;;;;;;;;;;4889021;29;20104;-87
2021/07/07 14:33:25;;;;;;;5.80;1.50;;;;;;;;;;4896302;29;20028;-85
2021/07/07 14:35:51;;;;;;;2.80;1.40;;;;;;;;;;4888534;29;20294;-86
2021/07/07 14:38:16;;;;;;;7.05;1.48;;;;;;;;;;4910765;29;20028;-86
2021/07/07 14:40:42;;;;;;;4.10;1.60;;;;;;;;;;4892996;29;20045;-86
2021/07/07 14:43:11;;;;;;;3.25;1.50;;;;;;;;;;4909079;29;20045;-85
2021/07/07 14:45:36;;;;;;;5.05;1.50;;;;;;;;;;4920668;29;20047;-87
2021/07/07 14:48:05;;;;;;;4.35;1.35;;;;;;;;;;4934931;29;20118;-87
2021/07/07 14:50:30;;;;;;;3.67;1.17;;;;;;;;;;4911674;29;20099;-87
2021/07/07 14:52:56;;;;;;;3.35;1.40;;;;;;;;;;4912951;29;20031;-87
2021/07/07 14:55:23;;;;;;;2.80;1.20;;;;;;;;;;4919531;29;20038;-86
2021/07/07 14:57:48;;;;;;;3.65;1.27;;;;;;;;;;4937113;29;20055;-86
2021/07/07 15:00:14;;;;;;;7.85;1.23;;;;;;;;;;4936294;29;20099;-87
2021/07/07 15:02:40;;;;;;;4.18;1.20;;;;;;;;;;4914704;29;20032;-87
2021/07/07 15:05:06;;;;;;;3.00;1.20;;;;;;;;;;4919476;29;20028;-86
2021/07/07 15:07:32;;;;;;;3.85;1.30;;;;;;;;;;4935767;29;20045;-87
2021/07/07 15:09:58;;;;;;;3.88;1.20;;;;;;;;;;4922673;29;20032;-86
2021/07/07 15:12:24;;;;;;;5.22;1.10;;;;;;;;;;4917347;29;20397;-85
2021/07/07 15:14:50;;;;;;;4.10;1.30;;;;;;;;;;4900257;29;20032;-84
2021/07/07 15:17:15;;;;;;;2.92;1.00;;;;;;;;;;4920955;29;20043;-87
2021/07/07 15:19:41;;;;;;;7.88;1.50;;;;;;;;;;4931348;29;20565;-87
2021/07/07 15:22:08;;;;;;;4.70;1.58;;;;;;;;;;4918958;29;20035;-87
2021/07/07 15:24:35;;;;;;;3.30;1.23;;;;;;;;;;4905118;29;20036;-87
2021/07/07 15:27:07;;;;;;;4.32;1.25;;;;;;;;;;4906163;29;20044;-87
2021/07/07 15:29:32;;;;;;;5.65;1.20;;;;;;;;;;4900653;29;20059;-88
2021/07/07 15:31:58;;;;;;;3.05;1.23;;;;;;;;;;4932250;29;20032;-86
2021/07/07 15:34:24;;;;;;;4.28;1.35;;;;;;;;;;4926656;29;20093;-87
2021/07/07 15:36:52;;;;;;;4.03;1.40;;;;;;;;;;4918283;29;20083;-87
2021/07/07 15:39:21;;;;;;;11.57;1.48;;;;;;;;;;4899739;29;20042;-86
2021/07/07 15:41:47;;;;;;;15.27;2.00;;;;;;;;;;4905956;29;20139;-87
2021/07/07 15:44:22;;;;;;;2.53;1.15;;;;;;;;;;4903574;29;20090;-85
2021/07/07 15:46:49;;;;;;;4.22;1.15;;;;;;;;;;4900513;29;20237;-86
2021/07/07 15:49:17;;;;;;;4.20;1.58;;;;;;;;;;4899866;29;20405;-86
2021/07/07 15:51:43;;;;;;;8.93;1.65;;;;;;;;;;4917503;29;20027;-85
2021/07/07 15:54:09;;;;;;;3.83;1.23;;;;;;;;;;4899692;29;20099;-85
2021/07/07 15:56:34;;;;;;;2.45;1.30;;;;;;;;;;4919542;29;20470;-85
2021/07/07 15:59:00;;;;;;;5.00;1.20;;;;;;;;;;4917092;29;20024;-84
2021/07/07 16:01:25;;;;;;;8.30;1.52;;;;;;;;;;4930881;29;20481;-84
2021/07/07 16:03:51;;;;;;;7.25;1.50;;;;;;;;;;4940024;28;20115;-84
2021/07/07 16:06:16;;;;;;;3.72;1.20;;;;;;;;;;4916269;29;20507;-86
2021/07/07 16:08:45;;;;;;;6.20;1.25;;;;;;;;;;4899830;29;20087;-84
2021/07/07 16:11:13;;;;;;;7.53;1.98;;;;;;;;;;4917350;29;20028;-84
2021/07/07 16:13:39;;;;;;;5.97;1.33;;;;;;;;;;4917039;29;20020;-84
2021/07/07 16:16:04;;;;;;;4.35;1.48;;;;;;;;;;4899517;29;20036;-85
2021/07/07 16:18:30;;;;;;;5.72;1.70;;;;;;;;;;4909219;29;20083;-85
2021/07/07 16:20:55;;;;;;;6.32;1.67;;;;;;;;;;4898638;29;20024;-87
2021/07/07 16:23:21;;;;;;;3.40;1.48;;;;;;;;;;4898973;29;20035;-86
2021/07/07 16:25:48;;;;;;;3.60;1.10;;;;;;;;;;4910940;29;20560;-86
2021/07/07 16:28:13;;;;;;;4.63;1.30;;;;;;;;;;4935630;29;20023;-85
2021/07/07 16:30:39;;;;;;;4.72;1.15;;;;;;;;;;4918616;29;20087;-86
2021/07/07 16:33:05;;;;;;;3.53;1.00;;;;;;;;;;4935645;29;20029;-86
2021/07/07 16:35:30;;;;;;;8.23;1.95;;;;;;;;;;4935090;29;20024;-86
2021/07/07 16:37:56;;;;;;;5.78;1.45;;;;;;;;;;4935517;29;20039;-86
2021/07/07 16:40:21;;;;;;;4.03;1.58;;;;;;;;;;4930033;29;20055;-86
2021/07/07 16:42:47;;;;;;;4.55;1.40;;;;;;;;;;4922383;29;20026;-85
2021/07/07 16:45:12;;;;;;;4.55;1.40;;;;;;;;;;4910983;29;20036;-86
2021/07/07 16:47:45;;;;;;;2.95;1.48;;;;;;;;;;4929830;29;20027;-86
2021/07/07 16:50:11;;;;;;;3.40;1.80;;;;;;;;;;4917919;29;20027;-86
2021/07/07 16:52:36;;;;;;;4.88;1.63;;;;;;;;;;4918092;29;20035;-86
2021/07/07 16:55:03;;;;;;;4.25;1.48;;;;;;;;;;4918143;29;20404;-86
2021/07/07 16:57:31;;;;;;;3.95;1.58;;;;;;;;;;4929173;29;20028;-86
2021/07/07 16:59:57;;;;;;;5.20;2.08;;;;;;;;;;4922723;29;20024;-86
2021/07/07 17:02:22;;;;;;;5.85;1.67;;;;;;;;;;4905164;29;20035;-86
2021/07/07 17:04:53;;;;;;;5.25;1.60;;;;;;;;;;4906594;29;20055;-85
2021/07/07 17:07:18;;;;;;;4.38;1.65;;;;;;;;;;4918696;29;20028;-85
2021/07/07 17:09:44;;;;;;;5.88;1.58;;;;;;;;;;4898075;29;20111;-85
2021/07/07 17:12:09;;;;;;;3.78;1.60;;;;;;;;;;4916196;29;20024;-85
2021/07/07 17:14:35;;;;;;;7.28;1.45;;;;;;;;;;4931024;29;20032;-85
2021/07/07 17:17:00;;;;;;;5.47;1.70;;;;;;;;;;4914433;29;20111;-85
2021/07/07 17:19:25;;;;;;;6.07;1.40;;;;;;;;;;4906106;29;20118;-85
2021/07/07 17:21:56;;;;;;;5.45;1.42;;;;;;;;;;4919555;29;20059;-85
2021/07/07 17:24:22;;;;;;;6.03;1.33;;;;;;;;;;4905236;29;20115;-85
2021/07/07 17:26:47;;;;;;;6.15;1.60;;;;;;;;;;4919331;29;20111;-85
2021/07/07 17:29:13;;;;;;;3.50;1.73;;;;;;;;;;4931663;29;20504;-87
2021/07/07 17:31:39;;;;;;;3.90;1.40;;;;;;;;;;4930731;29;20044;-86
2021/07/07 17:34:04;;;;;;;34.78;3.28;;;;;;;;;;4926557;29;20107;-82
2021/07/07 17:36:30;;;;;;;7.43;1.70;;;;;;;;;;4921291;29;20036;-86
2021/07/07 17:38:56;;;;;;;3.25;1.30;;;;;;;;;;4915384;29;20562;-87
2021/07/07 17:41:22;;;;;;;5.75;1.50;;;;;;;;;;4914459;29;20048;-85
2021/07/07 17:43:47;;;;;;;4.75;1.50;;;;;;;;;;4898100;29;20024;-86
2021/07/07 17:46:18;;;;;;;2.70;1.10;;;;;;;;;;4915142;29;20409;-85
2021/07/07 17:48:44;;;;;;;4.05;1.60;;;;;;;;;;4919839;29;20081;-86
2021/07/07 17:51:18;;;;;;;4.75;1.70;;;;;;;;;;4920461;29;20028;-86
2021/07/07 17:53:43;;;;;;;3.65;1.58;;;;;;;;;;4906365;29;20087;-86
2021/07/07 17:56:12;;;;;;;5.32;1.63;;;;;;;;;;4896002;29;20071;-86
2021/07/07 17:58:38;;;;;;;62.53;5.00;;;;;;;;;;4922338;29;20086;-85
2021/07/07 18:01:03;;;;;;;15.68;2.60;;;;;;;;;;4929466;29;20035;-86
2021/07/07 18:03:29;;;;;;;4.90;1.50;;;;;;;;;;4915121;29;20055;-87
2021/07/07 18:06:26;;;;;;;4.35;1.55;;;;;;;;;;4897706;29;20040;-87
2021/07/07 18:08:52;;;;;;;6.25;1.70;;;;;;;;;;4938945;28;20059;-86
2021/07/07 18:11:17;;;;;;;5.40;1.38;;;;;;;;;;4904670;29;20060;-87
2021/07/07 18:13:43;;;;;;;6.53;1.90;;;;;;;;;;4897997;29;20074;-88
2021/07/07 18:16:28;;;;;;;;;;;;;;;;;;;;;
2021/07/07 18:18:54;;;;;;;6.57;2.00;;;;;;;;;;4921232;29;20028;-87
2021/07/07 18:21:19;;;;;;;4.18;1.75;;;;;;;;;;4921367;29;20119;-87
2021/07/07 18:24:11;;;;;;;6.82;2.13;;;;;;;;;;4898888;29;20100;-88
2021/07/07 18:26:37;;;;;;;6.80;1.88;;;;;;;;;;4888679;29;20405;-87
2021/07/07 18:29:12;;;;;;;5.45;2.20;;;;;;;;;;4917322;29;20032;-88
2021/07/07 18:31:39;;;;;;;7.25;2.28;;;;;;;;;;4901801;29;20028;-87
2021/07/07 18:34:05;;;;;;;6.13;2.20;;;;;;;;;;4920187;29;20032;-88
2021/07/07 18:36:37;;;;;;;4.70;1.90;;;;;;;;;;4910275;29;20078;-87
2021/07/07 18:39:03;;;;;;;6.70;2.28;;;;;;;;;;4920756;29;20150;-90
2021/07/07 18:41:28;;;;;;;6.72;2.17;;;;;;;;;;4924870;29;20088;-90
2021/07/07 18:43:54;;;;;;;4.32;1.80;;;;;;;;;;4919264;29;20027;-90
2021/07/07 18:46:20;;;;;;;7.10;1.98;;;;;;;;;;4909888;29;20036;-90
2021/07/07 18:48:45;;;;;;;8.15;2.55;;;;;;;;;;4911839;29;20048;-90
2021/07/07 18:51:24;;;;;;;10.63;2.05;;;;;;;;;;4924971;29;20032;-88
2021/07/07 18:53:50;;;;;;;7.88;2.58;;;;;;;;;;4911395;29;20523;-90
2021/07/07 18:56:15;;;;;;;9.68;2.33;;;;;;;;;;4908976;29;20064;-90
2021/07/07 18:58:42;;;;;;;7.53;2.42;;;;;;;;;;4907232;29;20075;-91
2021/07/07 19:01:09;;;;;;;6.75;2.25;;;;;;;;;;4924318;29;20059;-91
2021/07/07 19:03:35;;;;;;;5.32;2.47;;;;;;;;;;4906635;29;20024;-90
2021/07/07 19:06:02;;;;;;;7.13;2.00;;;;;;;;;;4919360;29;20051;-90
2021/07/07 19:08:29;;;;;;;4.15;1.98;;;;;;;;;;4915201;29;20027;-90
2021/07/07 19:10:55;;;;;;;10.30;2.35;;;;;;;;;;4911022;29;20416;-90
2021/07/07 19:13:21;;;;;;;6.22;2.30;;;;;;;;;;4926736;29;20039;-91
2021/07/07 19:15:46;;;;;;;5.40;2.28;;;;;;;;;;4920449;29;20047;-91
2021/07/07 19:18:12;;;;;;;6.72;2.50;;;;;;;;;;4915535;29;20543;-91
2021/07/07 19:20:37;;;;;;;7.97;2.60;;;;;;;;;;4908653;29;20027;-90
2021/07/07 19:23:03;;;;;;;10.68;2.85;;;;;;;;;;4935131;29;20095;-90
2021/07/07 19:25:32;;;;;;;5.55;2.58;;;;;;;;;;4906718;29;20032;-90
2021/07/07 19:27:59;;;;;;;8.10;2.55;;;;;;;;;;4903304;29;20044;-91
2021/07/07 19:30:26;;;;;;;11.10;2.42;;;;;;;;;;4907238;29;20135;-91
2021/07/07 19:32:53;;;;;;;4.95;2.10;;;;;;;;;;4904470;29;20083;-91
2021/07/07 19:35:18;;;;;;;4.95;2.28;;;;;;;;;;4915106;29;20074;-91
2021/07/07 19:37:46;;;;;;;7.15;2.40;;;;;;;;;;4922316;29;20055;-91
2021/07/07 19:40:13;;;;;;;6.57;2.22;;;;;;;;;;4901844;29;20055;-91
2021/07/07 19:42:41;;;;;;;4.60;2.50;;;;;;;;;;4925816;29;20032;-91
2021/07/07 19:45:10;;;;;;;9.70;2.47;;;;;;;;;;4927082;29;20031;-94
2021/07/07 19:47:35;;;;;;;8.02;2.30;;;;;;;;;;4898220;29;20048;-91
2021/07/07 19:50:08;;;;;;;7.50;2.55;;;;;;;;;;4903393;29;20036;-92
2021/07/07 19:52:37;;;;;;;10.98;2.63;;;;;;;;;;4921233;29;20032;-91
2021/07/07 19:55:05;;;;;;;8.00;3.05;;;;;;;;;;4901185;29;20032;-93
2021/07/07 19:57:31;;;;;;;6.38;2.50;;;;;;;;;;4905866;29;20028;-91
2021/07/07 19:59:57;;;;;;;8.90;2.78;;;;;;;;;;4911732;29;20032;-91
2021/07/07 20:02:23;;;;;;;7.18;2.83;;;;;;;;;;4927322;29;20028;-92
2021/07/07 20:04:49;;;;;;;11.48;2.70;;;;;;;;;;4922034;29;20028;-91
2021/07/07 20:07:14;;;;;;;7.65;2.90;;;;;;;;;;4923568;29;20404;-90
2021/07/07 20:09:40;;;;;;;10.07;2.72;;;;;;;;;;4922838;29;20160;-91
2021/07/07 20:12:09;;;;;;;6.63;2.63;;;;;;;;;;4896339;29;20024;-94
2021/07/07 20:14:37;;;;;;;11.32;2.85;;;;;;;;;;4906033;29;20043;-93
2021/07/07 20:17:03;;;;;;;6.47;2.58;;;;;;;;;;4899688;29;20028;-93
2021/07/07 20:19:28;;;;;;;9.70;3.33;;;;;;;;;;4920662;29;20395;-94
2021/07/07 20:21:54;;;;;;;6.10;3.13;;;;;;;;;;4920320;29;20519;-94
2021/07/07 20:24:23;;;;;;;9.40;2.80;;;;;;;;;;4901577;29;20020;-94
2021/07/07 20:26:49;;;;;;;8.95;2.67;;;;;;;;;;4901604;29;20032;-94
2021/07/07 20:29:15;;;;;;;9.00;2.58;;;;;;;;;;4901759;29;20032;-94
2021/07/07 20:31:41;;;;;;;13.13;2.75;;;;;;;;;;4901238;29;20028;-94
2021/07/07 20:34:07;;;;;;;7.88;2.63;;;;;;;;;;4900384;29;20039;-92
2021/07/07 20:36:33;;;;;;;5.40;2.83;;;;;;;;;;4912063;29;20040;-93
2021/07/07 20:38:59;;;;;;;9.07;2.70;;;;;;;;;;4902692;29;20044;-93
2021/07/07 20:41:25;;;;;;;7.60;2.75;;;;;;;;;;4900598;29;20056;-92
2021/07/07 20:43:52;;;;;;;12.93;3.00;;;;;;;;;;4900712;29;20076;-92
2021/07/07 20:46:22;;;;;;;8.57;2.53;;;;;;;;;;4899480;29;20028;-93
2021/07/07 20:52:09;;;;;;;6.55;2.92;;;;;;;;;;4923135;29;20444;-89
2021/07/07 20:54:46;;;;;;;7.32;2.80;;;;;;;;;;4906762;29;20027;-90
2021/07/07 20:57:12;;;;;;;6.70;2.40;;;;;;;;;;4898664;29;20060;-89
2021/07/07 20:59:37;;;;;;;7.82;2.88;;;;;;;;;;4903788;29;20451;-88
2021/07/07 21:02:03;;;;;;;8.82;2.63;;;;;;;;;;4897702;29;20028;-88
2021/07/07 21:04:28;;;;;;;5.97;2.80;;;;;;;;;;4930949;29;20420;-89
2021/07/07 21:06:54;;;;;;;5.80;2.65;;;;;;;;;;4914693;29;20115;-90
2021/07/07 21:09:19;;;;;;;6.43;2.60;;;;;;;;;;4932271;29;21140;-88
2021/07/07 21:11:47;;;;;;;5.50;2.55;;;;;;;;;;4900543;29;20477;-89
2021/07/07 21:14:13;;;;;;;8.80;3.63;;;;;;;;;;4915960;29;20063;-89
2021/07/07 21:16:39;;;;;;;6.13;2.55;;;;;;;;;;4918219;29;20036;-88
2021/07/07 21:19:04;;;;;;;8.38;3.05;;;;;;;;;;4907541;29;20039;-88
2021/07/07 21:21:30;;;;;;;8.88;2.40;;;;;;;;;;4908049;29;20027;-88
2021/07/07 21:23:57;;;;;;;8.52;2.70;;;;;;;;;;4908472;29;20111;-88
2021/07/07 21:26:22;;;;;;;5.90;2.65;;;;;;;;;;4902994;29;20036;-88
2021/07/07 21:28:48;;;;;;;8.43;2.95;;;;;;;;;;4899422;29;20038;-87
2021/07/07 21:31:13;;;;;;;9.82;2.58;;;;;;;;;;4902421;29;20449;-89
2021/07/07 21:33:39;;;;;;;10.00;2.35;;;;;;;;;;4931898;29;20027;-88
2021/07/07 21:36:05;;;;;;;9.38;2.63;;;;;;;;;;4917805;29;20024;-88
2021/07/07 21:38:30;;;;;;;6.63;2.38;;;;;;;;;;4906063;29;20028;-87
2021/07/07 21:40:57;;;;;;;8.43;2.70;;;;;;;;;;4916197;29;20134;-87
2021/07/07 21:43:23;;;;;;;5.35;2.42;;;;;;;;;;4937606;29;20492;-86
2021/07/07 21:45:50;;;;;;;6.82;2.63;;;;;;;;;;4936663;29;20397;-87
2021/07/07 21:48:15;;;;;;;5.55;2.47;;;;;;;;;;4918875;29;20511;-87
2021/07/07 21:50:41;;;;;;;8.85;2.63;;;;;;;;;;4917252;29;20031;-88
2021/07/07 21:56:28;;;;;;;4.47;2.17;;;;;;;;;;5028571;23;20141;-86
2021/07/07 22:02:15;;;;;;;5.30;2.53;;;;;;;;;;4993211;28;20049;-86
2021/07/07 22:04:42;;;;;;;4.88;2.45;;;;;;;;;;4985648;28;20109;-86
2021/07/07 22:07:07;;;;;;;7.63;2.30;;;;;;;;;;4970809;28;20027;-86
2021/07/07 22:09:33;;;;;;;6.82;2.40;;;;;;;;;;4969505;28;20030;-85
2021/07/07 22:15:22;;;;;;;6.10;2.35;;;;;;;;;;4999405;28;20050;-85
